Portada
METAR-TAF:

METAR-TAF

Aeroports :

Batesville, Arkansas, Estats Units d'Amèrica

latitud: 35-44N, longitud: 091-39W, altitud: 141 m

Observació

L'informe es va fer fa 1 hora i 1 minuts, a les 12:56 UTC
Vent calma
Temperatura -1°C
Humitat 100%
Pressió 1014 hPa
Visibilitat: 12.9 km
Cel clar

METAR: KBVX 181256Z AUTO 00000KT 8SM CLR M01/M01 A2995 RMK AO2 SLP143 T10061006 FZRANO

Hora: 07:57 (13:57 UTC)


TAF: manca

Observacions i pronòstics meteorològics de més de 4000 aeroports (METAR i TAF).

Les estacions disponibles són els punts grocs i vermells al mapa.

Posi el ratolí al punt desitjat per veure el nom de l'estació.

Feu clic per veure les observacions i els pronòstics meteorològics.

Per canviar el mapa: feu clic els botons verds amb una creu de color negre per apropar; al botó verd amb un guió per allunyar la imatge; o en les fletxes verdes per a mapes adjacents.


METAR-TAF: